sensor_id;sensor_type;location;lat;lon;timestamp;pressure;altitude;pressure_sealevel;temperature;humidity
35577;BME280;21680;52.400;16.920;2023-07-28T00:01:55;99696.34;;;15.56;75.30
35577;BME280;21680;52.400;16.920;2023-07-28T00:04:20;99693.77;;;15.56;75.27
35577;BME280;21680;52.400;16.920;2023-07-28T00:06:45;99686.42;;;15.56;75.36
35577;BME280;21680;52.400;16.920;2023-07-28T00:09:10;99686.45;;;15.55;75.43
35577;BME280;21680;52.400;16.920;2023-07-28T00:11:35;99685.05;;;15.57;75.39
35577;BME280;21680;52.400;16.920;2023-07-28T00:14:01;99685.95;;;15.57;75.52
35577;BME280;21680;52.400;16.920;2023-07-28T00:16:26;99677.28;;;15.58;75.52
35577;BME280;21680;52.400;16.920;2023-07-28T00:18:51;99674.16;;;15.59;75.48
35577;BME280;21680;52.400;16.920;2023-07-28T00:21:16;99676.74;;;15.58;75.64
35577;BME280;21680;52.400;16.920;2023-07-28T00:23:42;99676.63;;;15.57;75.72
35577;BME280;21680;52.400;16.920;2023-07-28T00:26:07;99676.16;;;15.58;75.75
35577;BME280;21680;52.400;16.920;2023-07-28T00:28:32;99671.19;;;15.60;75.78
35577;BME280;21680;52.400;16.920;2023-07-28T00:30:57;99669.42;;;15.61;75.93
35577;BME280;21680;52.400;16.920;2023-07-28T00:33:23;99667.58;;;15.64;76.01
35577;BME280;21680;52.400;16.920;2023-07-28T00:35:48;99663.17;;;15.65;75.88
35577;BME280;21680;52.400;16.920;2023-07-28T00:38:14;99663.50;;;15.66;76.03
35577;BME280;21680;52.400;16.920;2023-07-28T00:40:39;99654.73;;;15.67;76.00
35577;BME280;21680;52.400;16.920;2023-07-28T00:43:04;99654.86;;;15.67;75.94
35577;BME280;21680;52.400;16.920;2023-07-28T00:45:31;99653.55;;;15.66;76.07
35577;BME280;21680;52.400;16.920;2023-07-28T00:47:57;99651.15;;;15.67;76.16
35577;BME280;21680;52.400;16.920;2023-07-28T00:50:23;99651.25;;;15.68;76.07
35577;BME280;21680;52.400;16.920;2023-07-28T00:52:49;99642.03;;;15.66;76.20
35577;BME280;21680;52.400;16.920;2023-07-28T00:55:14;99639.55;;;15.68;76.20
35577;BME280;21680;52.400;16.920;2023-07-28T00:57:40;99639.91;;;15.68;76.33
35577;BME280;21680;52.400;16.920;2023-07-28T01:00:06;99636.19;;;15.67;76.23
35577;BME280;21680;52.400;16.920;2023-07-28T01:02:31;99628.76;;;15.63;76.22
35577;BME280;21680;52.400;16.920;2023-07-28T01:04:58;99622.09;;;15.56;76.32
35577;BME280;21680;52.400;16.920;2023-07-28T01:07:35;99616.05;;;15.53;76.49
35577;BME280;21680;52.400;16.920;2023-07-28T01:10:05;99616.84;;;15.54;76.59
35577;BME280;21680;52.400;16.920;2023-07-28T01:12:32;99613.97;;;15.52;76.71
35577;BME280;21680;52.400;16.920;2023-07-28T01:14:57;99614.80;;;15.50;76.84
35577;BME280;21680;52.400;16.920;2023-07-28T01:17:22;99611.79;;;15.50;76.85
35577;BME280;21680;52.400;16.920;2023-07-28T01:19:50;99611.89;;;15.49;76.87
35577;BME280;21680;52.400;16.920;2023-07-28T01:22:38;99606.77;;;15.45;76.99
35577;BME280;21680;52.400;16.920;2023-07-28T01:25:18;99605.70;;;15.45;77.17
35577;BME280;21680;52.400;16.920;2023-07-28T01:27:47;99605.65;;;15.44;77.24
35577;BME280;21680;52.400;16.920;2023-07-28T01:30:13;99598.26;;;15.41;77.29
35577;BME280;21680;52.400;16.920;2023-07-28T01:32:39;99585.91;;;15.43;77.58
35577;BME280;21680;52.400;16.920;2023-07-28T01:35:05;99585.05;;;15.45;77.53
35577;BME280;21680;52.400;16.920;2023-07-28T01:37:30;99577.56;;;15.46;77.61
35577;BME280;21680;52.400;16.920;2023-07-28T01:39:56;99578.00;;;15.47;77.58
35577;BME280;21680;52.400;16.920;2023-07-28T01:42:23;99576.70;;;15.45;77.64
35577;BME280;21680;52.400;16.920;2023-07-28T01:44:48;99580.71;;;15.45;77.71
35577;BME280;21680;52.400;16.920;2023-07-28T01:47:14;99576.52;;;15.43;77.83
35577;BME280;21680;52.400;16.920;2023-07-28T01:49:39;99576.58;;;15.42;78.01
35577;BME280;21680;52.400;16.920;2023-07-28T01:52:04;99576.83;;;15.42;77.97
35577;BME280;21680;52.400;16.920;2023-07-28T01:54:30;99573.68;;;15.41;78.09
35577;BME280;21680;52.400;16.920;2023-07-28T01:56:55;99568.80;;;15.39;78.17
35577;BME280;21680;52.400;16.920;2023-07-28T01:59:20;99568.27;;;15.39;78.36
35577;BME280;21680;52.400;16.920;2023-07-28T02:01:46;99568.80;;;15.41;78.41
35577;BME280;21680;52.400;16.920;2023-07-28T02:04:12;99567.85;;;15.41;78.44
35577;BME280;21680;52.400;16.920;2023-07-28T02:06:37;99563.03;;;15.41;78.54
35577;BME280;21680;52.400;16.920;2023-07-28T02:09:02;99556.96;;;15.42;78.59
35577;BME280;21680;52.400;16.920;2023-07-28T02:11:28;99556.60;;;15.43;78.80
35577;BME280;21680;52.400;16.920;2023-07-28T02:13:53;99556.67;;;15.41;78.82
35577;BME280;21680;52.400;16.920;2023-07-28T02:16:18;99552.10;;;15.40;78.86
35577;BME280;21680;52.400;16.920;2023-07-28T02:18:43;99553.86;;;15.38;78.96
35577;BME280;21680;52.400;16.920;2023-07-28T02:21:09;99554.29;;;15.40;79.10
35577;BME280;21680;52.400;16.920;2023-07-28T02:23:34;99554.98;;;15.38;79.19
35577;BME280;21680;52.400;16.920;2023-07-28T02:25:59;99550.46;;;15.36;79.43
35577;BME280;21680;52.400;16.920;2023-07-28T02:28:24;99546.95;;;15.33;79.37
35577;BME280;21680;52.400;16.920;2023-07-28T02:30:50;99546.94;;;15.31;79.58
35577;BME280;21680;52.400;16.920;2023-07-28T02:33:15;99537.21;;;15.31;79.57
35577;BME280;21680;52.400;16.920;2023-07-28T02:35:40;99534.59;;;15.28;79.78
35577;BME280;21680;52.400;16.920;2023-07-28T02:38:05;99526.36;;;15.29;79.96
35577;BME280;21680;52.400;16.920;2023-07-28T02:40:32;99515.64;;;15.30;80.20
35577;BME280;21680;52.400;16.920;2023-07-28T02:42:58;99510.88;;;15.31;80.38
35577;BME280;21680;52.400;16.920;2023-07-28T02:45:23;99513.88;;;15.32;80.44
35577;BME280;21680;52.400;16.920;2023-07-28T02:47:50;99520.13;;;15.33;80.55
35577;BME280;21680;52.400;16.920;2023-07-28T02:50:16;99518.07;;;15.32;80.56
35577;BME280;21680;52.400;16.920;2023-07-28T02:52:41;99520.91;;;15.30;80.70
35577;BME280;21680;52.400;16.920;2023-07-28T02:55:07;99519.96;;;15.28;80.88
35577;BME280;21680;52.400;16.920;2023-07-28T02:57:32;99521.88;;;15.26;81.17
35577;BME280;21680;52.400;16.920;2023-07-28T02:59:57;99530.23;;;15.26;81.05
35577;BME280;21680;52.400;16.920;2023-07-28T03:02:23;99529.73;;;15.25;81.39
35577;BME280;21680;52.400;16.920;2023-07-28T03:04:49;99532.16;;;15.26;81.45
35577;BME280;21680;52.400;16.920;2023-07-28T03:07:14;99530.69;;;15.27;81.62
35577;BME280;21680;52.400;16.920;2023-07-28T03:09:39;99531.91;;;15.27;81.71
35577;BME280;21680;52.400;16.920;2023-07-28T03:12:05;99532.33;;;15.26;81.99
35577;BME280;21680;52.400;16.920;2023-07-28T03:14:31;99533.80;;;15.23;82.37
35577;BME280;21680;52.400;16.920;2023-07-28T03:16:57;99533.34;;;15.23;82.05
35577;BME280;21680;52.400;16.920;2023-07-28T03:19:22;99534.70;;;15.24;82.24
35577;BME280;21680;52.400;16.920;2023-07-28T03:21:48;99534.32;;;15.24;82.54
35577;BME280;21680;52.400;16.920;2023-07-28T03:24:13;99535.45;;;15.25;82.48
35577;BME280;21680;52.400;16.920;2023-07-28T03:26:38;99532.05;;;15.25;82.58
35577;BME280;21680;52.400;16.920;2023-07-28T03:29:03;99535.17;;;15.27;82.67
35577;BME280;21680;52.400;16.920;2023-07-28T03:31:29;99533.34;;;15.27;82.86
35577;BME280;21680;52.400;16.920;2023-07-28T03:33:55;99531.45;;;15.29;82.99
35577;BME280;21680;52.400;16.920;2023-07-28T03:36:20;99529.90;;;15.30;83.14
35577;BME280;21680;52.400;16.920;2023-07-28T03:38:45;99526.27;;;15.32;83.13
35577;BME280;21680;52.400;16.920;2023-07-28T03:41:12;99524.77;;;15.33;83.25
35577;BME280;21680;52.400;16.920;2023-07-28T03:43:38;99519.23;;;15.35;83.42
35577;BME280;21680;52.400;16.920;2023-07-28T03:46:03;99511.75;;;15.34;83.47
35577;BME280;21680;52.400;16.920;2023-07-28T03:48:28;99508.61;;;15.37;83.55
35577;BME280;21680;52.400;16.920;2023-07-28T03:50:54;99511.90;;;15.39;83.61
35577;BME280;21680;52.400;16.920;2023-07-28T03:53:19;99504.85;;;15.39;83.66
35577;BME280;21680;52.400;16.920;2023-07-28T03:55:44;99500.73;;;15.39;83.82
35577;BME280;21680;52.400;16.920;2023-07-28T03:58:09;99499.14;;;15.41;83.92
35577;BME280;21680;52.400;16.920;2023-07-28T04:00:34;99493.55;;;15.41;84.03
35577;BME280;21680;52.400;16.920;2023-07-28T04:03:00;99487.35;;;15.42;84.04
35577;BME280;21680;52.400;16.920;2023-07-28T04:05:25;99471.95;;;15.45;84.41
35577;BME280;21680;52.400;16.920;2023-07-28T04:07:50;99461.19;;;15.49;84.23
35577;BME280;21680;52.400;16.920;2023-07-28T04:10:16;99449.98;;;15.49;84.33
35577;BME280;21680;52.400;16.920;2023-07-28T04:12:41;99445.38;;;15.51;84.53
35577;BME280;21680;52.400;16.920;2023-07-28T04:15:07;99451.85;;;15.53;84.43
35577;BME280;21680;52.400;16.920;2023-07-28T04:17:32;99456.89;;;15.53;84.43
35577;BME280;21680;52.400;16.920;2023-07-28T04:19:58;99454.92;;;15.53;84.58
35577;BME280;21680;52.400;16.920;2023-07-28T04:22:23;99459.27;;;15.53;84.59
35577;BME280;21680;52.400;16.920;2023-07-28T04:24:48;99465.41;;;15.52;84.75
35577;BME280;21680;52.400;16.920;2023-07-28T04:27:14;99464.35;;;15.52;84.77
35577;BME280;21680;52.400;16.920;2023-07-28T04:29:40;99462.22;;;15.51;85.15
35577;BME280;21680;52.400;16.920;2023-07-28T04:32:06;99455.81;;;15.51;85.13
35577;BME280;21680;52.400;16.920;2023-07-28T04:34:34;99451.54;;;15.52;85.40
35577;BME280;21680;52.400;16.920;2023-07-28T04:37:00;99441.09;;;15.54;85.63
35577;BME280;21680;52.400;16.920;2023-07-28T04:39:25;99430.26;;;15.57;85.64
35577;BME280;21680;52.400;16.920;2023-07-28T04:41:50;99421.45;;;15.59;85.67
35577;BME280;21680;52.400;16.920;2023-07-28T04:44:17;99429.73;;;15.61;85.87
35577;BME280;21680;52.400;16.920;2023-07-28T04:46:42;99449.66;;;15.64;85.95
35577;BME280;21680;52.400;16.920;2023-07-28T04:49:08;99459.92;;;15.67;85.86
35577;BME280;21680;52.400;16.920;2023-07-28T04:51:33;99468.31;;;15.67;85.96
35577;BME280;21680;52.400;16.920;2023-07-28T04:53:58;99475.98;;;15.68;86.11
35577;BME280;21680;52.400;16.920;2023-07-28T04:56:23;99472.99;;;15.69;86.20
35577;BME280;21680;52.400;16.920;2023-07-28T04:58:48;99467.60;;;15.69;86.19
35577;BME280;21680;52.400;16.920;2023-07-28T05:01:14;99468.94;;;15.70;86.38
35577;BME280;21680;52.400;16.920;2023-07-28T05:03:39;99468.55;;;15.71;86.47
35577;BME280;21680;52.400;16.920;2023-07-28T05:06:04;99465.45;;;15.71;86.65
35577;BME280;21680;52.400;16.920;2023-07-28T05:08:30;99465.10;;;15.73;86.68
35577;BME280;21680;52.400;16.920;2023-07-28T05:10:55;99468.65;;;15.76;86.81
35577;BME280;21680;52.400;16.920;2023-07-28T05:13:21;99465.84;;;15.79;87.01
35577;BME280;21680;52.400;16.920;2023-07-28T05:15:46;99466.98;;;15.83;87.05
35577;BME280;21680;52.400;16.920;2023-07-28T05:18:11;99466.02;;;15.84;87.11
35577;BME280;21680;52.400;16.920;2023-07-28T05:20:37;99461.63;;;15.84;87.17
35577;BME280;21680;52.400;16.920;2023-07-28T05:23:02;99452.15;;;15.88;87.52
35577;BME280;21680;52.400;16.920;2023-07-28T05:25:27;99455.83;;;15.91;87.62
35577;BME280;21680;52.400;16.920;2023-07-28T05:27:52;99462.81;;;15.94;87.55
35577;BME280;21680;52.400;16.920;2023-07-28T05:30:17;99460.92;;;15.95;87.72
35577;BME280;21680;52.400;16.920;2023-07-28T05:32:43;99458.85;;;15.96;87.58
35577;BME280;21680;52.400;16.920;2023-07-28T05:35:08;99458.11;;;15.97;87.72
35577;BME280;21680;52.400;16.920;2023-07-28T05:37:33;99458.48;;;15.99;88.20
35577;BME280;21680;52.400;16.920;2023-07-28T05:39:59;99455.05;;;15.99;88.13
35577;BME280;21680;52.400;16.920;2023-07-28T05:42:25;99450.02;;;15.99;88.33
35577;BME280;21680;52.400;16.920;2023-07-28T05:44:51;99449.55;;;16.00;88.30
35577;BME280;21680;52.400;16.920;2023-07-28T05:47:18;99452.25;;;16.00;88.35
35577;BME280;21680;52.400;16.920;2023-07-28T05:49:43;99448.63;;;16.02;88.59
35577;BME280;21680;52.400;16.920;2023-07-28T05:52:12;99445.19;;;16.06;88.66
35577;BME280;21680;52.400;16.920;2023-07-28T05:54:37;99439.75;;;16.09;88.79
35577;BME280;21680;52.400;16.920;2023-07-28T05:57:03;99431.96;;;16.11;88.75
35577;BME280;21680;52.400;16.920;2023-07-28T05:59:28;99429.58;;;16.14;88.92
35577;BME280;21680;52.400;16.920;2023-07-28T06:01:54;99432.27;;;16.16;89.09
35577;BME280;21680;52.400;16.920;2023-07-28T06:04:20;99440.93;;;16.18;89.13
35577;BME280;21680;52.400;16.920;2023-07-28T06:06:45;99443.72;;;16.19;89.25
35577;BME280;21680;52.400;16.920;2023-07-28T06:09:10;99442.42;;;16.20;89.22
35577;BME280;21680;52.400;16.920;2023-07-28T06:11:36;99438.65;;;16.17;89.26
35577;BME280;21680;52.400;16.920;2023-07-28T06:14:01;99438.00;;;16.18;89.25
35577;BME280;21680;52.400;16.920;2023-07-28T06:16:26;99441.48;;;16.20;89.39
35577;BME280;21680;52.400;16.920;2023-07-28T06:18:51;99447.13;;;16.21;89.71
35577;BME280;21680;52.400;16.920;2023-07-28T06:21:16;99446.13;;;16.20;89.86
35577;BME280;21680;52.400;16.920;2023-07-28T06:23:42;99449.58;;;16.20;89.93
35577;BME280;21680;52.400;16.920;2023-07-28T06:26:07;99446.84;;;16.21;90.06
35577;BME280;21680;52.400;16.920;2023-07-28T06:28:32;99451.96;;;16.22;90.18
35577;BME280;21680;52.400;16.920;2023-07-28T06:30:58;99458.90;;;16.23;90.27
35577;BME280;21680;52.400;16.920;2023-07-28T06:33:24;99454.90;;;16.21;90.54
35577;BME280;21680;52.400;16.920;2023-07-28T06:35:50;99455.98;;;16.21;90.59
35577;BME280;21680;52.400;16.920;2023-07-28T06:38:15;99452.24;;;16.20;90.72
35577;BME280;21680;52.400;16.920;2023-07-28T06:40:41;99452.22;;;16.21;90.95
35577;BME280;21680;52.400;16.920;2023-07-28T06:43:06;99445.63;;;16.22;90.97
35577;BME280;21680;52.400;16.920;2023-07-28T06:45:32;99446.35;;;16.24;91.53
35577;BME280;21680;52.400;16.920;2023-07-28T06:47:58;99452.86;;;16.26;91.44
35577;BME280;21680;52.400;16.920;2023-07-28T06:50:23;99454.04;;;16.29;91.50
35577;BME280;21680;52.400;16.920;2023-07-28T06:52:48;99450.88;;;16.32;91.66
35577;BME280;21680;52.400;16.920;2023-07-28T06:55:18;99451.47;;;16.36;92.05
35577;BME280;21680;52.400;16.920;2023-07-28T06:57:47;99453.15;;;16.39;91.97
35577;BME280;21680;52.400;16.920;2023-07-28T07:00:13;99450.86;;;16.43;92.12
35577;BME280;21680;52.400;16.920;2023-07-28T07:02:40;99449.85;;;16.46;92.14
35577;BME280;21680;52.400;16.920;2023-07-28T07:05:05;99453.52;;;16.52;92.44
35577;BME280;21680;52.400;16.920;2023-07-28T07:07:32;99457.84;;;16.56;92.36
35577;BME280;21680;52.400;16.920;2023-07-28T07:09:57;99461.61;;;16.58;92.78
35577;BME280;21680;52.400;16.920;2023-07-28T07:12:22;99462.73;;;16.62;92.75
35577;BME280;21680;52.400;16.920;2023-07-28T07:14:48;99471.55;;;16.63;92.84
35577;BME280;21680;52.400;16.920;2023-07-28T07:17:13;99473.22;;;16.64;93.30
35577;BME280;21680;52.400;16.920;2023-07-28T07:19:38;99464.08;;;16.67;93.54
35577;BME280;21680;52.400;16.920;2023-07-28T07:22:05;99469.83;;;16.67;93.73
35577;BME280;21680;52.400;16.920;2023-07-28T07:24:31;99471.52;;;16.67;93.92
35577;BME280;21680;52.400;16.920;2023-07-28T07:26:56;99472.36;;;16.70;94.11
35577;BME280;21680;52.400;16.920;2023-07-28T07:29:21;99474.19;;;16.71;94.13
35577;BME280;21680;52.400;16.920;2023-07-28T07:31:47;99473.29;;;16.74;94.34
35577;BME280;21680;52.400;16.920;2023-07-28T07:34:12;99474.06;;;16.75;94.75
35577;BME280;21680;52.400;16.920;2023-07-28T07:36:37;99471.16;;;16.75;95.14
35577;BME280;21680;52.400;16.920;2023-07-28T07:39:02;99478.48;;;16.80;95.39
35577;BME280;21680;52.400;16.920;2023-07-28T07:41:30;99476.69;;;16.86;95.66
35577;BME280;21680;52.400;16.920;2023-07-28T07:43:56;99476.50;;;16.92;95.83
35577;BME280;21680;52.400;16.920;2023-07-28T07:46:22;99477.34;;;16.97;96.52
35577;BME280;21680;52.400;16.920;2023-07-28T07:48:48;99483.82;;;16.99;96.60
35577;BME280;21680;52.400;16.920;2023-07-28T07:51:14;99483.20;;;17.00;96.90
35577;BME280;21680;52.400;16.920;2023-07-28T07:53:39;99485.56;;;17.02;97.25
35577;BME280;21680;52.400;16.920;2023-07-28T07:56:06;99494.02;;;17.06;97.80
35577;BME280;21680;52.400;16.920;2023-07-28T07:58:32;99495.65;;;17.10;98.43
35577;BME280;21680;52.400;16.920;2023-07-28T08:00:58;99495.42;;;17.13;98.77
35577;BME280;21680;52.400;16.920;2023-07-28T08:03:24;99490.84;;;17.14;99.06
35577;BME280;21680;52.400;16.920;2023-07-28T08:05:50;99500.00;;;17.18;99.84
35577;BME280;21680;52.400;16.920;2023-07-28T08:08:16;99494.98;;;17.22;100.00
35577;BME280;21680;52.400;16.920;2023-07-28T08:10:43;99494.02;;;17.25;100.00
35577;BME280;21680;52.400;16.920;2023-07-28T08:13:08;99497.11;;;17.29;100.00
35577;BME280;21680;52.400;16.920;2023-07-28T08:15:33;99498.83;;;17.31;100.00
35577;BME280;21680;52.400;16.920;2023-07-28T08:17:59;99499.09;;;17.34;100.00
35577;BME280;21680;52.400;16.920;2023-07-28T08:20:24;99501.08;;;17.40;100.00
35577;BME280;21680;52.400;16.920;2023-07-28T08:22:50;99496.13;;;17.47;100.00
35577;BME280;21680;52.400;16.920;2023-07-28T08:25:15;99495.98;;;17.59;100.00
35577;BME280;21680;52.400;16.920;2023-07-28T08:27:41;99494.33;;;17.65;100.00
35577;BME280;21680;52.400;16.920;2023-07-28T08:30:06;99494.52;;;17.67;100.00
35577;BME280;21680;52.400;16.920;2023-07-28T08:32:32;99497.02;;;17.66;100.00
35577;BME280;21680;52.400;16.920;2023-07-28T08:34:58;99501.23;;;17.71;100.00
35577;BME280;21680;52.400;16.920;2023-07-28T08:37:23;99505.87;;;17.75;100.00
35577;BME280;21680;52.400;16.920;2023-07-28T08:39:49;99507.33;;;17.71;100.00
35577;BME280;21680;52.400;16.920;2023-07-28T08:42:14;99498.97;;;17.70;100.00
35577;BME280;21680;52.400;16.920;2023-07-28T08:44:40;99499.36;;;17.81;100.00
35577;BME280;21680;52.400;16.920;2023-07-28T08:47:06;99501.44;;;17.89;100.00
35577;BME280;21680;52.400;16.920;2023-07-28T08:49:33;99499.41;;;17.91;100.00
35577;BME280;21680;52.400;16.920;2023-07-28T08:52:01;99498.95;;;17.94;100.00
35577;BME280;21680;52.400;16.920;2023-07-28T08:54:27;99501.33;;;17.97;100.00
35577;BME280;21680;52.400;16.920;2023-07-28T08:56:52;99502.33;;;18.08;100.00
35577;BME280;21680;52.400;16.920;2023-07-28T08:59:28;99496.87;;;18.22;100.00
35577;BME280;21680;52.400;16.920;2023-07-28T09:01:55;99492.25;;;18.38;100.00
35577;BME280;21680;52.400;16.920;2023-07-28T09:04:23;99491.07;;;18.48;100.00
35577;BME280;21680;52.400;16.920;2023-07-28T09:06:49;99488.83;;;18.55;100.00
35577;BME280;21680;52.400;16.920;2023-07-28T09:09:15;99488.73;;;18.60;100.00
35577;BME280;21680;52.400;16.920;2023-07-28T09:11:48;99488.88;;;18.64;100.00
35577;BME280;21680;52.400;16.920;2023-07-28T09:14:14;99485.92;;;18.69;100.00
35577;BME280;21680;52.400;16.920;2023-07-28T09:16:41;99488.88;;;18.77;100.00
35577;BME280;21680;52.400;16.920;2023-07-28T09:19:08;99493.52;;;18.82;100.00
35577;BME280;21680;52.400;16.920;2023-07-28T09:21:34;99495.53;;;18.89;100.00
35577;BME280;21680;52.400;16.920;2023-07-28T09:24:03;99495.83;;;18.88;100.00
35577;BME280;21680;52.400;16.920;2023-07-28T09:26:39;99501.20;;;18.98;100.00
35577;BME280;21680;52.400;16.920;2023-07-28T09:29:19;99494.62;;;19.06;100.00
35577;BME280;21680;52.400;16.920;2023-07-28T09:31:46;99494.58;;;19.10;100.00
35577;BME280;21680;52.400;16.920;2023-07-28T09:34:13;99487.41;;;19.09;100.00
35577;BME280;21680;52.400;16.920;2023-07-28T09:36:48;99489.39;;;19.11;100.00
35577;BME280;21680;52.400;16.920;2023-07-28T09:39:14;99485.01;;;19.23;100.00
35577;BME280;21680;52.400;16.920;2023-07-28T09:41:39;99481.60;;;19.35;100.00
35577;BME280;21680;52.400;16.920;2023-07-28T09:44:05;99485.17;;;19.47;100.00
35577;BME280;21680;52.400;16.920;2023-07-28T09:46:35;99488.02;;;19.53;100.00
35577;BME280;21680;52.400;16.920;2023-07-28T09:49:10;99493.80;;;19.51;100.00
35577;BME280;21680;52.400;16.920;2023-07-28T09:51:40;99497.96;;;19.57;100.00
35577;BME280;21680;52.400;16.920;2023-07-28T09:54:14;99496.41;;;19.67;100.00
35577;BME280;21680;52.400;16.920;2023-07-28T09:56:45;99491.50;;;19.80;100.00
35577;BME280;21680;52.400;16.920;2023-07-28T09:59:13;99487.61;;;19.97;100.00
35577;BME280;21680;52.400;16.920;2023-07-28T10:01:43;99489.31;;;20.07;100.00
35577;BME280;21680;52.400;16.920;2023-07-28T10:04:10;99491.91;;;20.10;100.00
35577;BME280;21680;52.400;16.920;2023-07-28T10:06:36;99491.83;;;20.18;100.00
35577;BME280;21680;52.400;16.920;2023-07-28T10:09:03;99487.42;;;20.27;100.00
35577;BME280;21680;52.400;16.920;2023-07-28T10:11:31;99493.80;;;20.32;100.00
35577;BME280;21680;52.400;16.920;2023-07-28T10:13:56;99486.35;;;20.36;100.00
35577;BME280;21680;52.400;16.920;2023-07-28T10:16:37;99490.41;;;20.43;100.00
35577;BME280;21680;52.400;16.920;2023-07-28T10:19:03;99482.69;;;20.47;100.00
35577;BME280;21680;52.400;16.920;2023-07-28T10:21:29;99485.61;;;20.59;100.00
35577;BME280;21680;52.400;16.920;2023-07-28T10:23:56;99488.33;;;20.63;100.00
35577;BME280;21680;52.400;16.920;2023-07-28T10:26:34;99497.29;;;20.59;100.00
35577;BME280;21680;52.400;16.920;2023-07-28T10:29:16;99503.33;;;20.50;99.96
35577;BME280;21680;52.400;16.920;2023-07-28T10:31:54;99498.83;;;20.40;99.78
35577;BME280;21680;52.400;16.920;2023-07-28T10:34:21;99500.26;;;20.40;99.19
35577;BME280;21680;52.400;16.920;2023-07-28T10:36:56;99501.70;;;20.42;98.62
35577;BME280;21680;52.400;16.920;2023-07-28T10:39:22;99506.46;;;20.36;98.03
35577;BME280;21680;52.400;16.920;2023-07-28T10:42:07;99510.04;;;20.21;97.85
35577;BME280;21680;52.400;16.920;2023-07-28T10:44:34;99505.23;;;20.05;97.90
35577;BME280;21680;52.400;16.920;2023-07-28T10:47:00;99515.09;;;20.05;98.13
35577;BME280;21680;52.400;16.920;2023-07-28T10:49:27;99505.70;;;20.12;98.32
35577;BME280;21680;52.400;16.920;2023-07-28T10:51:53;99498.45;;;20.29;98.44
35577;BME280;21680;52.400;16.920;2023-07-28T10:54:18;99505.41;;;20.43;98.43
35577;BME280;21680;52.400;16.920;2023-07-28T10:56:46;99511.77;;;20.61;98.11
35577;BME280;21680;52.400;16.920;2023-07-28T10:59:11;99507.27;;;20.69;97.40
35577;BME280;21680;52.400;16.920;2023-07-28T11:01:38;99508.15;;;20.81;97.18
35577;BME280;21680;52.400;16.920;2023-07-28T11:04:17;99513.94;;;20.88;96.89
35577;BME280;21680;52.400;16.920;2023-07-28T11:06:45;99518.64;;;20.99;95.04
35577;BME280;21680;52.400;16.920;2023-07-28T11:09:11;99518.73;;;21.14;94.26
35577;BME280;21680;52.400;16.920;2023-07-28T11:11:38;99523.62;;;21.29;92.63
35577;BME280;21680;52.400;16.920;2023-07-28T11:14:05;99515.14;;;21.49;92.51
35577;BME280;21680;52.400;16.920;2023-07-28T11:16:36;99512.02;;;21.71;92.15
35577;BME280;21680;52.400;16.920;2023-07-28T11:19:04;99524.52;;;21.85;90.93
35577;BME280;21680;52.400;16.920;2023-07-28T11:21:38;99519.48;;;21.87;89.79
35577;BME280;21680;52.400;16.920;2023-07-28T11:24:05;99518.25;;;21.86;89.76
35577;BME280;21680;52.400;16.920;2023-07-28T11:26:31;99531.70;;;21.91;88.69
35577;BME280;21680;52.400;16.920;2023-07-28T11:28:59;99529.70;;;21.80;87.38
35577;BME280;21680;52.400;16.920;2023-07-28T11:31:25;99528.10;;;21.76;87.75
35577;BME280;21680;52.400;16.920;2023-07-28T11:33:51;99530.52;;;21.77;86.95
35577;BME280;21680;52.400;16.920;2023-07-28T11:36:26;99524.54;;;21.72;86.82
35577;BME280;21680;52.400;16.920;2023-07-28T11:38:52;99540.30;;;21.84;86.52
35577;BME280;21680;52.400;16.920;2023-07-28T11:41:19;99533.39;;;21.88;85.23
35577;BME280;21680;52.400;16.920;2023-07-28T11:43:45;99533.69;;;21.85;84.12
35577;BME280;21680;52.400;16.920;2023-07-28T11:49:29;99522.42;;;22.10;83.79
35577;BME280;21680;52.400;16.920;2023-07-28T11:51:55;99532.69;;;22.19;82.56
35577;BME280;21680;52.400;16.920;2023-07-28T11:54:24;99531.98;;;22.32;82.43
35577;BME280;21680;52.400;16.920;2023-07-28T11:56:51;99528.86;;;22.35;82.20
35577;BME280;21680;52.400;16.920;2023-07-28T11:59:17;99529.37;;;22.39;82.14
35577;BME280;21680;52.400;16.920;2023-07-28T12:04:23;99531.80;;;22.47;82.83
35577;BME280;21680;52.400;16.920;2023-07-28T12:07:12;99542.02;;;22.60;82.29
35577;BME280;21680;52.400;16.920;2023-07-28T12:12:12;99528.40;;;22.71;81.13
35577;BME280;21680;52.400;16.920;2023-07-28T12:14:38;99532.39;;;22.74;80.42
35577;BME280;21680;52.400;16.920;2023-07-28T12:17:14;99534.02;;;22.79;78.85
35577;BME280;21680;52.400;16.920;2023-07-28T12:19:41;99524.85;;;22.94;79.15
35577;BME280;21680;52.400;16.920;2023-07-28T12:22:07;99543.84;;;23.21;78.62
35577;BME280;21680;52.400;16.920;2023-07-28T12:24:33;99555.38;;;23.09;77.38
35577;BME280;21680;52.400;16.920;2023-07-28T12:26:58;99569.56;;;23.00;76.85
35577;BME280;21680;52.400;16.920;2023-07-28T12:29:24;99562.46;;;22.92;77.04
35577;BME280;21680;52.400;16.920;2023-07-28T12:31:49;99556.77;;;22.77;76.25
35577;BME280;21680;52.400;16.920;2023-07-28T12:34:14;99567.63;;;22.67;76.59
35577;BME280;21680;52.400;16.920;2023-07-28T12:36:39;99563.73;;;22.64;76.42
35577;BME280;21680;52.400;16.920;2023-07-28T12:39:06;99563.89;;;22.51;76.21
35577;BME280;21680;52.400;16.920;2023-07-28T12:41:31;99555.34;;;22.37;76.37
35577;BME280;21680;52.400;16.920;2023-07-28T12:43:56;99555.07;;;22.22;76.21
35577;BME280;21680;52.400;16.920;2023-07-28T12:46:21;99550.41;;;21.96;75.26
35577;BME280;21680;52.400;16.920;2023-07-28T12:48:47;99550.95;;;21.80;75.50
35577;BME280;21680;52.400;16.920;2023-07-28T12:51:12;99555.86;;;21.63;75.58
35577;BME280;21680;52.400;16.920;2023-07-28T12:53:37;99569.89;;;21.11;75.79